Time;durP1;ratioP1;P1;durP2;ratioP2;P2;SDS_P1;SDS_P2;PMS_P1;PMS_P2;Temp;Humidity;BMP_temperature;BMP_pressure;BME280_temperature;BME280_humidity;BME280_pressure;Samples;Min_cycle;Max_cycle;Signal;HPM_P1;HPM_P2
2022/12/23 00:01:19;;;;;;;91.80;42.03;;;4.30;99.90;;;;;;10293139;28;20036;-80
2022/12/23 00:06:20;;;;;;;83.60;38.67;;;4.30;99.90;;;;;;10293049;28;20116;-82
2022/12/23 00:11:20;;;;;;;91.37;40.23;;;4.30;99.90;;;;;;10290790;28;20042;-84
2022/12/23 00:16:21;;;;;;;92.30;41.97;;;4.30;99.90;;;;;;10289033;28;20051;-82
2022/12/23 00:21:22;;;;;;;95.50;38.97;;;4.30;99.90;;;;;;10292403;28;20379;-81
2022/12/23 00:26:24;;;;;;;114.63;45.23;;;4.20;99.90;;;;;;10291522;28;20051;-85
2022/12/23 00:31:25;;;;;;;114.13;45.87;;;4.20;99.90;;;;;;10271773;28;20108;-81
2022/12/23 00:36:28;;;;;;;111.03;43.03;;;4.20;99.90;;;;;;10293633;28;20061;-80
2022/12/23 00:46:48;;;;;;;109.70;44.30;;;4.10;99.90;;;;;;10293562;28;20043;-82
2022/12/23 00:51:49;;;;;;;115.67;43.90;;;4.10;99.90;;;;;;10290928;28;20308;-83
2022/12/23 00:56:49;;;;;;;122.20;47.93;;;4.10;99.90;;;;;;10292407;28;20027;-81
2022/12/23 01:07:09;;;;;;;144.90;51.20;;;4.10;99.90;;;;;;10291081;28;20043;-84
2022/12/23 01:12:09;;;;;;;121.67;48.87;;;4.10;99.90;;;;;;10286928;28;20022;-81
2022/12/23 01:17:10;;;;;;;121.07;45.57;;;4.10;99.90;;;;;;10289839;28;20058;-81
2022/12/23 01:22:11;;;;;;;125.40;46.47;;;4.10;99.90;;;;;;10287233;28;20043;-85
2022/12/23 01:27:11;;;;;;;128.03;49.37;;;4.10;99.90;;;;;;10290931;28;20043;-81
2022/12/23 01:32:12;;;;;;;147.67;53.30;;;4.10;99.90;;;;;;10287230;28;20037;-82
2022/12/23 01:37:12;;;;;;;122.27;47.57;;;4.10;99.90;;;;;;10283447;28;20519;-81
2022/12/23 01:47:46;;;;;;;149.47;58.67;;;4.10;99.90;;;;;;10292556;28;20077;-86
2022/12/23 01:53:20;;;;;;;160.70;59.47;;;4.00;99.90;;;;;;10298693;28;20034;-82
2022/12/23 01:58:30;;;;;;;208.77;72.93;;;3.90;99.90;;;;;;10295256;28;20046;-81
2022/12/23 02:03:43;;;;;;;176.37;68.67;;;3.80;99.90;;;;;;10294661;28;20035;-82
2022/12/23 02:19:47;;;;;;;166.37;61.33;;;3.60;99.90;;;;;;10288935;28;20051;-82
2022/12/23 02:25:18;;;;;;;178.37;70.33;;;3.60;99.90;;;;;;10305027;28;20569;-82
2022/12/23 02:30:30;;;;;;;150.87;56.57;;;3.60;99.90;;;;;;10299036;28;20493;-82
2022/12/23 02:35:44;;;;;;;158.67;57.70;;;3.60;99.90;;;;;;10298680;28;20129;-86
2022/12/23 02:41:05;;;;;;;177.67;57.50;;;3.50;99.90;;;;;;10295771;28;20042;-82
2022/12/23 02:46:08;;;;;;;144.73;58.53;;;3.50;99.90;;;;;;10312238;23;20431;-83
2022/12/23 02:51:13;;;;;;;122.73;47.17;;;3.50;99.90;;;;;;10300153;28;20109;-86
2022/12/23 02:56:16;;;;;;;106.30;41.53;;;3.50;99.90;;;;;;10299150;28;20041;-85
2022/12/23 03:01:18;;;;;;;125.63;47.13;;;3.60;99.90;;;;;;10299023;28;20701;-84
2022/12/23 03:06:24;;;;;;;120.40;47.50;;;3.70;99.90;;;;;;10292875;28;20042;-84
2022/12/23 03:11:38;;;;;;;108.83;42.93;;;3.70;99.90;;;;;;10292353;28;20160;-82
2022/12/23 03:16:48;;;;;;;149.67;55.27;;;3.70;99.90;;;;;;10292520;28;20073;-81
2022/12/23 03:22:01;;;;;;;129.47;49.20;;;3.70;99.90;;;;;;10282299;28;20046;-86
2022/12/23 03:27:21;;;;;;;107.37;42.33;;;3.70;99.90;;;;;;10299153;28;20030;-82
2022/12/23 03:32:24;;;;;;;104.67;41.17;;;3.70;99.90;;;;;;10298320;28;20033;-82
2022/12/23 03:37:27;;;;;;;102.67;42.13;;;3.70;99.90;;;;;;10294945;28;20030;-82
2022/12/23 03:42:33;;;;;;;101.90;39.60;;;3.60;99.90;;;;;;10294077;28;20026;-82
2022/12/23 03:47:36;;;;;;;;;;;3.60;99.90;;;;;;10292203;28;20085;-83
2022/12/23 03:52:42;;;;;;;104.20;42.23;;;3.60;99.90;;;;;;10295444;28;20028;-83
2022/12/23 03:57:50;;;;;;;110.93;44.10;;;3.50;99.90;;;;;;10297688;28;20041;-82
2022/12/23 04:02:58;;;;;;;113.43;44.87;;;3.50;99.90;;;;;;10282568;28;20112;-84
2022/12/23 04:08:34;;;;;;;107.93;42.43;;;3.50;99.90;;;;;;10294121;28;20057;-82
2022/12/23 04:13:35;;;;;;;90.53;38.17;;;3.50;99.90;;;;;;10289140;28;20041;-86
2022/12/23 04:18:35;;;;;;;112.77;42.47;;;3.50;99.90;;;;;;10291381;28;20030;-82
2022/12/23 04:23:36;;;;;;;100.33;38.70;;;3.50;99.90;;;;;;10296251;28;20786;-84
2022/12/23 04:28:36;;;;;;;87.60;36.53;;;3.40;99.90;;;;;;10295279;28;20133;-81
2022/12/23 04:33:37;;;;;;;141.67;45.93;;;3.40;99.90;;;;;;10293996;28;20042;-83
2022/12/23 04:38:37;;;;;;;164.17;47.30;;;3.20;99.90;;;;;;10289528;28;20657;-82
2022/12/23 04:43:38;;;;;;;103.70;39.63;;;3.20;99.90;;;;;;10288968;28;20403;-84
2022/12/23 04:48:38;;;;;;;122.20;39.93;;;3.20;99.90;;;;;;10287306;28;20054;-80
2022/12/23 04:53:39;;;;;;;113.13;42.77;;;3.10;99.90;;;;;;10278553;28;20402;-83
2022/12/23 04:58:40;;;;;;;134.60;50.87;;;3.00;99.90;;;;;;10279249;28;20101;-84
2022/12/23 05:03:40;;;;;;;152.87;52.33;;;3.00;99.90;;;;;;10278181;28;20035;-85
2022/12/23 05:08:41;;;;;;;126.03;49.57;;;3.10;99.90;;;;;;10282936;28;20041;-82
2022/12/23 05:13:42;;;;;;;109.83;43.63;;;3.10;99.90;;;;;;10278237;28;20034;-82
2022/12/23 05:18:42;;;;;;;118.50;47.93;;;3.20;99.90;;;;;;10284173;28;20064;-81
2022/12/23 05:23:43;;;;;;;109.20;44.90;;;3.30;99.90;;;;;;10299497;28;20031;-82
2022/12/23 05:28:44;;;;;;;118.97;46.10;;;3.40;99.90;;;;;;10284730;28;20100;-82
2022/12/23 05:33:44;;;;;;;125.03;51.73;;;3.40;99.90;;;;;;10285897;28;20479;-82
2022/12/23 05:38:45;;;;;;;132.17;49.93;;;3.40;99.90;;;;;;10286798;28;20085;-82
2022/12/23 05:43:46;;;;;;;117.50;47.03;;;3.50;99.90;;;;;;10286255;28;20042;-85
2022/12/23 05:48:46;;;;;;;117.77;47.93;;;3.50;99.90;;;;;;10281110;28;20062;-82
2022/12/23 05:53:47;;;;;;;105.60;45.97;;;3.60;99.90;;;;;;10283753;28;20113;-82
2022/12/23 05:58:47;;;;;;;104.60;45.53;;;3.60;99.90;;;;;;10294664;28;20444;-86
2022/12/23 06:03:48;;;;;;;117.77;56.50;;;3.60;99.90;;;;;;10278423;28;20116;-82
2022/12/23 06:08:48;;;;;;;153.40;75.33;;;3.60;99.90;;;;;;10283912;28;20043;-82
2022/12/23 06:13:49;;;;;;;83.63;38.20;;;3.60;99.90;;;;;;10291524;28;20073;-82
2022/12/23 06:18:54;;;;;;;93.10;40.20;;;3.60;99.90;;;;;;10294231;28;20371;-81
2022/12/23 06:23:54;;;;;;;92.17;41.33;;;3.60;99.90;;;;;;10280717;28;20027;-86
2022/12/23 06:28:55;;;;;;;189.23;79.23;;;3.60;99.90;;;;;;10282150;28;20769;-82
2022/12/23 06:33:55;;;;;;;256.27;104.67;;;3.60;99.90;;;;;;10283164;28;20146;-85
2022/12/23 06:38:56;;;;;;;147.87;61.00;;;3.60;99.90;;;;;;10282570;28;20035;-82
2022/12/23 06:43:56;;;;;;;196.47;76.40;;;3.60;99.90;;;;;;10281427;28;20038;-82
2022/12/23 06:48:57;;;;;;;205.10;73.63;;;3.50;99.90;;;;;;10282084;28;20050;-83
2022/12/23 06:53:58;;;;;;;174.23;68.37;;;3.60;99.90;;;;;;10282897;28;20088;-84
2022/12/23 07:05:10;;;;;;;318.60;184.07;;;3.60;99.90;;;;;;10281230;28;20054;-83
2022/12/23 07:10:11;;;;;;;225.57;123.30;;;3.70;99.90;;;;;;10264325;28;20022;-84
2022/12/23 07:15:11;;;;;;;287.00;120.13;;;3.80;99.90;;;;;;10283952;28;20038;-82
2022/12/23 07:20:13;;;;;;;188.10;99.70;;;3.80;99.90;;;;;;10281156;28;20043;-82
2022/12/23 07:25:13;;;;;;;174.20;75.27;;;3.80;99.90;;;;;;10281378;28;20646;-83
2022/12/23 07:30:14;;;;;;;92.63;43.00;;;3.90;99.90;;;;;;10263209;28;20117;-84
2022/12/23 07:35:15;;;;;;;333.43;120.40;;;3.90;99.90;;;;;;10280960;28;20039;-83
2022/12/23 07:40:16;;;;;;;165.40;65.23;;;4.00;99.90;;;;;;10280745;28;20073;-83
2022/12/23 07:45:17;;;;;;;180.87;69.53;;;4.10;99.90;;;;;;10280240;28;20126;-85
2022/12/23 07:50:17;;;;;;;153.73;67.90;;;4.10;99.90;;;;;;10279633;28;20030;-84
2022/12/23 07:55:18;;;;;;;159.90;69.47;;;4.20;99.90;;;;;;10279247;28;20668;-82
2022/12/23 08:00:19;;;;;;;178.73;78.80;;;4.30;99.90;;;;;;10280238;28;20113;-84
2022/12/23 08:05:20;;;;;;;156.37;69.13;;;4.30;99.90;;;;;;10275772;28;20049;-80
2022/12/23 08:10:21;;;;;;;246.80;102.97;;;4.40;99.90;;;;;;10279058;28;20473;-82
2022/12/23 08:15:22;;;;;;;351.20;148.10;;;4.40;99.90;;;;;;10277321;28;20038;-82
2022/12/23 08:20:23;;;;;;;150.30;65.87;;;4.50;99.90;;;;;;10276971;28;20038;-81
2022/12/23 08:25:24;;;;;;;177.73;78.60;;;4.50;99.90;;;;;;10271959;28;20046;-81
2022/12/23 08:30:24;;;;;;;142.83;62.57;;;4.60;99.90;;;;;;10257258;28;20042;-82
2022/12/23 08:35:25;;;;;;;114.03;52.70;;;4.70;99.90;;;;;;10269724;28;21029;-83
2022/12/23 08:40:25;;;;;;;103.10;48.80;;;4.80;99.90;;;;;;10278085;28;20038;-82
2022/12/23 08:45:26;;;;;;;91.83;43.77;;;5.00;99.90;;;;;;10271056;28;20054;-82
2022/12/23 08:50:26;;;;;;;83.40;41.97;;;5.10;99.90;;;;;;10287017;28;20042;-82
2022/12/23 08:55:27;;;;;;;114.67;56.00;;;5.20;99.90;;;;;;10281599;28;20037;-82
2022/12/23 09:00:27;;;;;;;101.03;45.73;;;5.30;99.90;;;;;;10288994;28;20620;-81
2022/12/23 09:05:28;;;;;;;77.80;39.17;;;5.40;99.90;;;;;;10285615;28;20035;-82
2022/12/23 09:10:29;;;;;;;87.13;38.90;;;5.40;99.90;;;;;;10297685;28;20367;-83
2022/12/23 09:15:29;;;;;;;63.50;33.43;;;5.40;99.90;;;;;;10277118;28;20037;-82
2022/12/23 09:20:30;;;;;;;91.70;42.40;;;5.40;99.90;;;;;;10276381;28;20026;-84
2022/12/23 09:25:31;;;;;;;68.57;33.67;;;5.60;99.90;;;;;;10287637;28;20798;-84
2022/12/23 09:30:32;;;;;;;71.73;35.33;;;5.70;99.90;;;;;;10283496;28;20115;-87
2022/12/23 09:35:32;;;;;;;71.53;34.50;;;5.80;99.90;;;;;;10268264;28;20030;-84
2022/12/23 09:40:36;;;;;;;69.50;33.13;;;5.80;99.90;;;;;;10286189;28;20027;-82
2022/12/23 09:46:20;;;;;;;72.10;35.87;;;5.80;99.90;;;;;;10271062;28;20061;-82
2022/12/23 09:51:22;;;;;;;58.20;30.47;;;5.90;99.90;;;;;;10245094;28;20054;-83
2022/12/23 09:56:46;;;;;;;64.10;31.27;;;6.00;99.90;;;;;;10282374;28;20109;-83
2022/12/23 10:02:04;;;;;;;56.20;30.57;;;6.20;99.90;;;;;;10284075;28;20043;-82
2022/12/23 10:07:05;;;;;;;75.17;36.23;;;6.40;99.90;;;;;;10281993;28;20047;-87
2022/12/23 10:12:17;;;;;;;66.70;33.73;;;6.40;99.90;;;;;;10275475;28;20039;-87
2022/12/23 10:17:29;;;;;;;49.07;25.17;;;6.40;99.90;;;;;;10291752;28;20065;-81
2022/12/23 10:22:39;;;;;;;41.73;22.03;;;6.40;99.90;;;;;;10290596;28;20522;-82
2022/12/23 10:27:42;;;;;;;41.43;22.70;;;6.40;99.90;;;;;;10263773;28;20042;-83
2022/12/23 10:33:00;;;;;;;43.53;23.13;;;6.40;99.90;;;;;;10278995;28;20076;-82
2022/12/23 10:38:01;;;;;;;39.83;23.13;;;6.40;99.90;;;;;;10276531;28;20027;-81
2022/12/23 10:43:29;;;;;;;42.47;21.77;;;6.40;99.90;;;;;;10283438;28;20042;-83
2022/12/23 10:49:03;;;;;;;57.23;29.27;;;6.40;99.90;;;;;;10282736;28;20273;-82
2022/12/23 10:54:09;;;;;;;37.23;17.77;;;6.40;99.90;;;;;;10266054;28;20370;-81
2022/12/23 10:59:16;;;;;;;24.00;12.83;;;6.40;99.90;;;;;;10277523;28;20174;-82
2022/12/23 11:04:20;;;;;;;29.33;13.90;;;6.50;99.90;;;;;;10258497;28;20113;-82
2022/12/23 11:09:26;;;;;;;29.40;15.50;;;6.50;99.90;;;;;;10272176;28;21049;-82
2022/12/23 11:14:48;;;;;;;34.35;20.63;;;6.40;99.90;;;;;;10266881;28;20070;-82
2022/12/23 11:20:09;;;;;;;37.73;20.90;;;6.50;99.90;;;;;;10275857;28;20093;-83
2022/12/23 11:25:39;;;;;;;42.83;24.47;;;6.50;99.90;;;;;;10279319;28;20045;-84
2022/12/23 11:30:53;;;;;;;45.50;24.13;;;6.40;99.90;;;;;;10263320;28;20034;-85
2022/12/23 11:36:15;;;;;;;48.00;27.03;;;6.50;99.90;;;;;;10263663;28;20085;-82
2022/12/23 11:41:26;;;;;;;60.30;32.07;;;6.50;99.90;;;;;;10268129;28;20019;-82
2022/12/23 11:46:29;;;;;;;64.10;33.57;;;6.60;99.90;;;;;;10279687;28;20550;-83
2022/12/23 11:51:29;;;;;;;49.67;29.00;;;6.70;99.90;;;;;;10261602;28;20030;-85
2022/12/23 11:56:36;;;;;;;57.50;31.93;;;6.60;99.90;;;;;;10262479;28;20464;-82
2022/12/23 12:01:38;;;;;;;45.40;26.73;;;6.70;99.90;;;;;;10280230;28;20467;-86
2022/12/23 12:06:44;;;;;;;41.53;24.60;;;6.70;99.90;;;;;;10260826;28;20403;-82
2022/12/23 12:11:57;;;;;;;41.97;22.73;;;6.60;99.90;;;;;;10278492;28;20041;-83
2022/12/23 12:17:10;;;;;;;45.07;25.23;;;6.60;99.90;;;;;;10279080;28;20038;-82
2022/12/23 12:22:31;;;;;;;50.93;26.87;;;6.50;99.90;;;;;;10258231;28;20070;-82
2022/12/23 12:27:36;;;;;;;64.20;33.73;;;6.50;99.90;;;;;;10263008;28;20482;-86
2022/12/23 12:32:49;;;;;;;63.90;35.42;;;6.50;99.90;;;;;;10250564;28;20408;-83
2022/12/23 12:37:59;;;;;;;52.43;30.43;;;6.60;99.90;;;;;;10263651;28;20031;-82
2022/12/23 12:43:25;;;;;;;64.07;34.10;;;6.60;99.90;;;;;;10279755;28;20054;-83
2022/12/23 12:48:34;;;;;;;71.97;33.47;;;6.70;99.90;;;;;;10272334;28;20053;-83
2022/12/23 12:53:40;;;;;;;59.40;29.67;;;6.70;99.90;;;;;;10287055;28;20750;-82
2022/12/23 12:58:43;;;;;;;50.47;28.53;;;6.80;99.90;;;;;;10265928;28;20073;-81
2022/12/23 13:04:06;;;;;;;42.03;23.60;;;6.80;99.90;;;;;;10279241;28;20497;-82
2022/12/23 13:09:09;;;;;;;44.80;23.97;;;6.80;99.90;;;;;;10278567;28;20043;-82
2022/12/23 13:14:28;;;;;;;44.60;25.63;;;6.70;99.90;;;;;;10261400;28;20089;-81
2022/12/23 13:19:43;;;;;;;46.50;25.93;;;6.70;99.90;;;;;;10255347;28;20039;-82
2022/12/23 13:25:12;;;;;;;64.27;33.37;;;6.60;99.90;;;;;;10259902;28;20039;-83
2022/12/23 13:30:16;;;;;;;78.47;39.53;;;6.60;99.90;;;;;;10268190;28;20042;-82
2022/12/23 13:35:33;;;;;;;64.67;33.63;;;6.50;99.90;;;;;;10277747;28;20078;-81
2022/12/23 13:41:04;;;;;;;60.93;32.43;;;6.40;99.90;;;;;;10283633;28;20300;-81
2022/12/23 13:46:14;;;;;;;62.57;30.33;;;6.40;99.90;;;;;;10247690;28;20125;-82
2022/12/23 13:51:42;;;;;;;59.40;32.90;;;6.40;99.90;;;;;;10284900;28;20043;-81
2022/12/23 13:57:06;;;;;;;57.40;29.17;;;6.30;99.90;;;;;;10283482;28;20066;-82
2022/12/23 14:02:35;;;;;;;74.07;34.77;;;6.30;99.90;;;;;;10244911;28;20118;-80
2022/12/23 14:07:36;;;;;;;50.47;28.50;;;6.30;99.90;;;;;;10273080;28;20078;-83
2022/12/23 14:12:40;;;;;;;64.17;32.80;;;6.20;99.90;;;;;;10284638;28;20031;-82
2022/12/23 14:18:05;;;;;;;66.40;35.10;;;6.10;99.90;;;;;;10276481;28;20042;-81
2022/12/23 14:23:18;;;;;;;65.63;37.10;;;6.10;99.90;;;;;;10270912;28;20067;-84
2022/12/23 14:28:48;;;;;;;71.80;36.87;;;6.10;99.90;;;;;;10248699;28;20035;-84
2022/12/23 14:33:50;;;;;;;75.63;41.40;;;6.10;99.90;;;;;;10272439;28;20759;-82
2022/12/23 14:39:12;;;;;;;95.03;45.00;;;6.00;99.90;;;;;;10283439;28;20057;-85
2022/12/23 14:44:41;;;;;;;120.20;53.53;;;5.90;99.90;;;;;;10269763;28;20081;-83
2022/12/23 14:49:50;;;;;;;91.47;47.27;;;5.90;99.90;;;;;;10259853;28;20696;-83
2022/12/23 14:54:51;;;;;;;78.03;44.40;;;5.80;99.90;;;;;;10300714;28;20077;-83
2022/12/23 15:00:01;;;;;;;85.80;44.13;;;5.80;99.90;;;;;;10289203;28;20045;-85
2022/12/23 15:05:02;;;;;;;78.07;42.40;;;5.80;99.90;;;;;;10271214;28;20035;-81
2022/12/23 15:10:06;;;;;;;79.40;42.03;;;5.90;99.90;;;;;;10284155;28;20129;-82
2022/12/23 15:15:15;;;;;;;114.23;53.20;;;5.80;99.90;;;;;;10290050;28;20030;-82
2022/12/23 15:20:19;;;;;;;80.37;41.83;;;5.80;99.90;;;;;;10283624;28;20039;-81
2022/12/23 15:25:20;;;;;;;94.13;44.33;;;5.80;99.90;;;;;;10274351;28;20037;-83
2022/12/23 15:30:22;;;;;;;74.27;41.37;;;5.70;99.90;;;;;;10290009;28;20032;-82
2022/12/23 15:35:28;;;;;;;82.00;43.60;;;5.70;99.90;;;;;;10282728;28;20038;-82
2022/12/23 15:40:37;;;;;;;84.45;45.92;;;5.70;99.90;;;;;;10284099;28;20578;-82
2022/12/23 15:45:39;;;;;;;89.13;50.80;;;5.70;99.90;;;;;;10274751;28;20069;-81
2022/12/23 15:50:40;;;;;;;129.63;67.17;;;5.60;99.90;;;;;;10283374;28;20109;-80
2022/12/23 15:55:41;;;;;;;119.77;62.13;;;5.60;99.90;;;;;;10282263;28;20402;-83
2022/12/23 16:00:50;;;;;;;100.80;54.70;;;5.60;99.90;;;;;;10282009;28;20419;-82
2022/12/23 16:05:51;;;;;;;102.50;53.67;;;5.50;99.90;;;;;;10279845;28;20066;-82
2022/12/23 16:11:02;;;;;;;96.60;52.20;;;5.50;99.90;;;;;;10280267;28;20109;-83
2022/12/23 16:16:28;;;;;;;87.57;50.57;;;5.50;99.90;;;;;;10263192;28;20023;-85
2022/12/23 16:21:32;;;;;;;92.97;49.47;;;5.50;99.90;;;;;;10285845;28;20137;-82
2022/12/23 16:26:41;;;;;;;89.03;44.30;;;5.40;99.90;;;;;;10278778;28;20062;-86
2022/12/23 16:31:42;;;;;;;91.57;47.93;;;5.50;99.90;;;;;;10274855;28;20410;-82
2022/12/23 16:36:43;;;;;;;104.57;52.90;;;5.50;99.90;;;;;;10276302;28;20086;-82
2022/12/23 16:41:43;;;;;;;88.37;47.43;;;5.50;99.90;;;;;;10279645;28;20089;-81
2022/12/23 16:46:48;;;;;;;93.57;47.07;;;5.50;99.90;;;;;;10279523;28;20138;-82
2022/12/23 16:51:49;;;;;;;93.50;48.80;;;5.40;99.90;;;;;;10279657;28;20105;-83
2022/12/23 16:56:49;;;;;;;112.17;54.93;;;5.40;99.90;;;;;;10279578;28;20038;-82
2022/12/23 17:01:50;;;;;;;93.93;48.53;;;5.40;99.90;;;;;;10279927;28;20027;-84
2022/12/23 17:06:50;;;;;;;103.57;54.60;;;5.40;99.90;;;;;;10265773;28;20045;-82
2022/12/23 17:11:52;;;;;;;101.13;53.40;;;5.40;99.90;;;;;;10276833;28;20089;-83
2022/12/23 17:16:53;;;;;;;101.33;51.77;;;5.40;99.90;;;;;;10281754;28;20575;-82
2022/12/23 17:22:01;;;;;;;115.27;60.07;;;5.40;99.90;;;;;;10283764;28;20018;-85
2022/12/23 17:27:11;;;;;;;107.57;54.00;;;5.40;99.90;;;;;;10290877;28;20038;-87
2022/12/23 17:32:15;;;;;;;118.13;58.03;;;5.40;99.90;;;;;;10278425;28;20027;-86
2022/12/23 17:37:20;;;;;;;107.07;54.20;;;5.30;99.90;;;;;;10295089;28;20034;-83
2022/12/23 17:42:21;;;;;;;132.07;66.73;;;5.40;99.90;;;;;;10292572;28;20030;-88
2022/12/23 17:47:22;;;;;;;144.10;66.33;;;5.40;99.90;;;;;;10264441;28;20457;-83
2022/12/23 17:52:23;;;;;;;113.97;55.77;;;5.50;99.90;;;;;;10295816;28;20037;-83
2022/12/23 17:57:25;;;;;;;141.70;65.27;;;5.40;99.90;;;;;;10295747;28;20039;-88
2022/12/23 18:02:31;;;;;;;133.23;61.77;;;5.50;99.90;;;;;;10274128;28;20035;-88
2022/12/23 18:07:32;;;;;;;145.90;68.17;;;5.40;99.90;;;;;;10301996;28;20479;-88
2022/12/23 18:12:36;;;;;;;125.33;62.23;;;5.50;99.90;;;;;;10280732;28;20037;-85
2022/12/23 18:17:36;;;;;;;150.40;67.07;;;5.40;99.90;;;;;;10279099;28;20027;-87
2022/12/23 18:22:37;;;;;;;134.37;64.50;;;5.50;99.90;;;;;;10277718;28;20043;-86
2022/12/23 18:27:44;;;;;;;131.07;63.00;;;5.50;99.90;;;;;;10288429;28;20101;-89
2022/12/23 18:32:46;;;;;;;124.87;59.23;;;5.50;99.90;;;;;;10301502;28;20133;-86
2022/12/23 18:37:47;;;;;;;108.80;50.00;;;5.50;99.90;;;;;;10287337;28;20030;-85
2022/12/23 18:42:49;;;;;;;82.67;40.17;;;5.50;99.90;;;;;;10273449;28;20038;-87
2022/12/23 18:47:49;;;;;;;75.67;37.80;;;5.50;99.90;;;;;;10264823;28;20525;-85
2022/12/23 18:53:43;;;;;;;105.93;51.80;;;5.50;99.90;;;;;;10280065;28;20061;-85
2022/12/23 19:04:57;;;;;;;105.30;52.07;;;5.50;99.90;;;;;;10294894;28;20406;-85
2022/12/23 19:09:58;;;;;;;77.03;38.63;;;5.60;99.90;;;;;;10283646;28;20516;-83
2022/12/23 19:14:59;;;;;;;88.40;40.47;;;5.60;99.90;;;;;;10266506;28;20039;-86
2022/12/23 19:32:07;;;;;;;94.27;43.20;;;5.70;99.90;;;;;;10265548;28;20086;-85
2022/12/23 19:37:37;;;;;;;164.70;71.33;;;5.70;99.90;;;;;;10284924;28;20117;-85
2022/12/23 19:42:38;;;;;;;130.97;56.03;;;5.70;99.90;;;;;;10284348;28;20089;-87
2022/12/23 19:47:39;;;;;;;108.13;46.70;;;5.70;99.90;;;;;;10288510;28;20061;-87
2022/12/23 19:58:41;;;;;;;111.63;47.90;;;5.80;99.90;;;;;;10284685;28;20035;-85
2022/12/23 20:04:35;;;;;;;119.13;51.63;;;5.80;99.90;;;;;;10284437;28;20038;-86
2022/12/23 20:09:36;;;;;;;106.97;47.07;;;5.80;99.90;;;;;;10283126;28;20522;-84
2022/12/23 20:14:36;;;;;;;154.93;59.63;;;5.80;99.90;;;;;;10266440;28;20081;-87
2022/12/23 20:19:37;;;;;;;91.03;44.33;;;5.80;99.90;;;;;;10266163;28;20023;-85
2022/12/23 20:24:38;;;;;;;111.07;49.10;;;5.80;99.90;;;;;;10274024;28;20034;-86
2022/12/23 20:29:38;;;;;;;84.37;42.03;;;5.80;99.90;;;;;;10280685;28;20054;-85
2022/12/23 20:34:47;;;;;;;71.20;36.57;;;5.80;99.90;;;;;;10296974;28;20026;-88
2022/12/23 20:39:48;;;;;;;68.40;35.20;;;5.80;99.90;;;;;;10289808;28;20211;-87
2022/12/23 20:56:42;;;;;;;54.43;30.50;;;5.80;99.90;;;;;;10525513;23;20021;-87
2022/12/23 21:01:43;;;;;;;53.30;29.10;;;5.80;99.90;;;;;;10349783;28;20054;-87
2022/12/23 21:06:59;;;;;;;56.40;29.47;;;5.90;99.90;;;;;;10340850;28;20049;-89
2022/12/23 21:30:04;;;;;;;56.60;30.10;;;5.90;99.90;;;;;;10192850;29;20048;-85
2022/12/23 21:35:57;;;;;;;44.93;24.87;;;5.90;99.90;;;;;;10313731;28;20504;-85
2022/12/23 21:41:58;;;;;;;;;;;;;;;;;;;;;
2022/12/23 21:46:58;;;;;;;73.47;37.40;;;6.00;99.90;;;;;;10202440;29;20066;-86
2022/12/23 21:53:00;;;;;;;59.63;34.13;;;6.00;99.90;;;;;;10186254;29;20055;-88
2022/12/23 21:58:00;;;;;;;59.27;31.13;;;6.00;99.90;;;;;;10183598;29;20064;-87
2022/12/23 22:09:06;;;;;;;44.53;24.77;;;6.00;99.90;;;;;;10354143;28;20050;-86
2022/12/23 22:14:10;;;;;;;50.63;27.80;;;6.00;99.90;;;;;;10353290;28;20029;-86
2022/12/23 22:19:11;;;;;;;57.43;30.80;;;6.00;99.90;;;;;;10357244;28;20466;-87
2022/12/23 22:24:12;;;;;;;76.10;36.57;;;6.00;99.90;;;;;;10342483;28;20124;-86
2022/12/23 22:29:12;;;;;;;76.10;36.03;;;6.00;99.90;;;;;;10355451;28;20038;-86
2022/12/23 22:34:16;;;;;;;114.90;51.97;;;6.00;99.90;;;;;;10362745;28;20113;-87
2022/12/23 22:39:19;;;;;;;95.03;45.47;;;6.00;99.90;;;;;;10335700;28;20069;-87
2022/12/23 22:44:21;;;;;;;67.03;34.83;;;6.00;99.90;;;;;;10363205;28;20117;-88
2022/12/23 22:49:21;;;;;;;75.43;38.17;;;6.00;99.90;;;;;;10361357;28;20053;-87
2022/12/23 22:54:22;;;;;;;68.03;33.17;;;5.90;99.90;;;;;;10343740;28;20025;-86
2022/12/23 22:59:23;;;;;;;58.63;32.43;;;5.90;99.90;;;;;;10344752;28;20049;-86
2022/12/23 23:04:24;;;;;;;67.33;35.70;;;5.90;99.90;;;;;;10358028;28;20026;-86
2022/12/23 23:09:24;;;;;;;62.93;33.73;;;5.90;99.90;;;;;;10352541;28;20026;-85
2022/12/23 23:14:26;;;;;;;62.73;33.73;;;5.80;99.90;;;;;;10341515;28;20473;-84
2022/12/23 23:19:41;;;;;;;60.63;32.90;;;5.80;99.90;;;;;;10357625;28;20037;-86
2022/12/23 23:24:42;;;;;;;88.65;39.92;;;5.80;99.90;;;;;;10352788;28;20675;-85
2022/12/23 23:29:43;;;;;;;68.93;34.57;;;5.80;99.90;;;;;;10347193;28;20046;-86
2022/12/23 23:34:43;;;;;;;82.53;39.53;;;5.80;99.90;;;;;;10355273;28;20045;-86
2022/12/23 23:39:44;;;;;;;74.80;39.00;;;5.70;99.90;;;;;;10358697;28;20736;-85
2022/12/23 23:44:45;;;;;;;92.73;42.67;;;5.70;99.90;;;;;;10352281;28;20097;-83
2022/12/23 23:49:45;;;;;;;82.80;39.07;;;5.60;99.90;;;;;;10352434;28;20141;-86
2022/12/23 23:54:46;;;;;;;79.07;38.03;;;5.60;99.90;;;;;;10348371;28;20513;-87
2022/12/23 23:59:47;;;;;;;88.93;42.60;;;5.60;99.90;;;;;;10341267;28;20564;-85
